sensor_id;sensor_type;location;lat;lon;timestamp;P1;durP1;ratioP1;P2;durP2;ratioP2
19280;SDS011;9774;52.034;5.342;2023-01-29T00:01:17;11.80;;;8.05;;
19280;SDS011;9774;52.034;5.342;2023-01-29T00:03:44;13.13;;;7.85;;
19280;SDS011;9774;52.034;5.342;2023-01-29T00:06:11;10.18;;;6.85;;
19280;SDS011;9774;52.034;5.342;2023-01-29T00:08:40;11.50;;;7.82;;
19280;SDS011;9774;52.034;5.342;2023-01-29T00:11:07;12.93;;;7.57;;
19280;SDS011;9774;52.034;5.342;2023-01-29T00:13:35;12.38;;;8.80;;
19280;SDS011;9774;52.034;5.342;2023-01-29T00:16:02;10.10;;;7.47;;
19280;SDS011;9774;52.034;5.342;2023-01-29T00:18:30;12.73;;;8.10;;
19280;SDS011;9774;52.034;5.342;2023-01-29T00:20:57;12.77;;;8.25;;
19280;SDS011;9774;52.034;5.342;2023-01-29T00:23:25;12.73;;;7.95;;
19280;SDS011;9774;52.034;5.342;2023-01-29T00:25:53;11.38;;;8.10;;
19280;SDS011;9774;52.034;5.342;2023-01-29T00:28:24;11.50;;;7.90;;
19280;SDS011;9774;52.034;5.342;2023-01-29T00:30:51;10.77;;;7.63;;
19280;SDS011;9774;52.034;5.342;2023-01-29T00:33:18;13.55;;;8.48;;
19280;SDS011;9774;52.034;5.342;2023-01-29T00:35:46;13.63;;;8.25;;
19280;SDS011;9774;52.034;5.342;2023-01-29T00:38:13;11.02;;;7.68;;
19280;SDS011;9774;52.034;5.342;2023-01-29T00:40:40;9.77;;;7.15;;
19280;SDS011;9774;52.034;5.342;2023-01-29T00:43:26;12.57;;;8.88;;
19280;SDS011;9774;52.034;5.342;2023-01-29T00:46:26;12.82;;;8.10;;
19280;SDS011;9774;52.034;5.342;2023-01-29T00:48:53;12.85;;;7.55;;
19280;SDS011;9774;52.034;5.342;2023-01-29T00:51:20;13.60;;;8.57;;
19280;SDS011;9774;52.034;5.342;2023-01-29T00:53:47;10.52;;;8.05;;
19280;SDS011;9774;52.034;5.342;2023-01-29T00:56:15;12.18;;;8.50;;
19280;SDS011;9774;52.034;5.342;2023-01-29T00:58:43;12.32;;;8.10;;
19280;SDS011;9774;52.034;5.342;2023-01-29T01:01:11;10.25;;;7.57;;
19280;SDS011;9774;52.034;5.342;2023-01-29T01:03:38;12.95;;;8.57;;
19280;SDS011;9774;52.034;5.342;2023-01-29T01:06:07;11.60;;;7.50;;
19280;SDS011;9774;52.034;5.342;2023-01-29T01:08:35;12.35;;;8.77;;
19280;SDS011;9774;52.034;5.342;2023-01-29T01:11:20;11.60;;;8.10;;
19280;SDS011;9774;52.034;5.342;2023-01-29T01:13:49;11.88;;;7.88;;
19280;SDS011;9774;52.034;5.342;2023-01-29T01:16:16;13.55;;;8.88;;
19280;SDS011;9774;52.034;5.342;2023-01-29T01:18:44;13.68;;;8.82;;
19280;SDS011;9774;52.034;5.342;2023-01-29T01:21:12;12.98;;;8.85;;
19280;SDS011;9774;52.034;5.342;2023-01-29T01:23:39;12.82;;;8.70;;
19280;SDS011;9774;52.034;5.342;2023-01-29T01:26:09;13.32;;;8.75;;
19280;SDS011;9774;52.034;5.342;2023-01-29T01:28:37;14.18;;;8.70;;
19280;SDS011;9774;52.034;5.342;2023-01-29T01:31:09;11.55;;;8.68;;
19280;SDS011;9774;52.034;5.342;2023-01-29T01:33:37;13.10;;;9.23;;
19280;SDS011;9774;52.034;5.342;2023-01-29T01:36:05;11.82;;;7.88;;
19280;SDS011;9774;52.034;5.342;2023-01-29T01:38:35;13.38;;;8.65;;
19280;SDS011;9774;52.034;5.342;2023-01-29T01:41:08;11.45;;;8.35;;
19280;SDS011;9774;52.034;5.342;2023-01-29T01:43:49;13.60;;;9.45;;
19280;SDS011;9774;52.034;5.342;2023-01-29T01:46:19;10.40;;;8.07;;
19280;SDS011;9774;52.034;5.342;2023-01-29T01:48:48;13.02;;;8.32;;
19280;SDS011;9774;52.034;5.342;2023-01-29T01:51:19;12.35;;;8.57;;
19280;SDS011;9774;52.034;5.342;2023-01-29T01:53:49;11.63;;;8.38;;
19280;SDS011;9774;52.034;5.342;2023-01-29T01:56:21;12.38;;;8.95;;
19280;SDS011;9774;52.034;5.342;2023-01-29T01:58:52;15.35;;;9.35;;
19280;SDS011;9774;52.034;5.342;2023-01-29T02:01:23;11.82;;;8.32;;
19280;SDS011;9774;52.034;5.342;2023-01-29T02:03:53;11.25;;;8.00;;
19280;SDS011;9774;52.034;5.342;2023-01-29T02:06:40;11.93;;;8.32;;
19280;SDS011;9774;52.034;5.342;2023-01-29T02:09:26;11.70;;;7.95;;
19280;SDS011;9774;52.034;5.342;2023-01-29T02:12:00;12.57;;;9.07;;
19280;SDS011;9774;52.034;5.342;2023-01-29T02:14:29;12.18;;;8.10;;
19280;SDS011;9774;52.034;5.342;2023-01-29T02:17:00;12.82;;;9.07;;
19280;SDS011;9774;52.034;5.342;2023-01-29T02:19:31;14.45;;;9.48;;
19280;SDS011;9774;52.034;5.342;2023-01-29T02:22:13;13.07;;;9.40;;
19280;SDS011;9774;52.034;5.342;2023-01-29T02:25:05;11.70;;;8.35;;
19280;SDS011;9774;52.034;5.342;2023-01-29T02:30:56;13.57;;;9.27;;
19280;SDS011;9774;52.034;5.342;2023-01-29T02:33:32;13.52;;;8.77;;
19280;SDS011;9774;52.034;5.342;2023-01-29T02:36:08;12.02;;;8.20;;
19280;SDS011;9774;52.034;5.342;2023-01-29T02:38:44;14.32;;;9.75;;
19280;SDS011;9774;52.034;5.342;2023-01-29T02:41:19;14.13;;;8.73;;
19280;SDS011;9774;52.034;5.342;2023-01-29T02:43:54;11.70;;;8.35;;
19280;SDS011;9774;52.034;5.342;2023-01-29T02:46:31;12.25;;;8.65;;
19280;SDS011;9774;52.034;5.342;2023-01-29T02:49:05;12.13;;;7.85;;
19280;SDS011;9774;52.034;5.342;2023-01-29T02:51:37;12.95;;;9.18;;
19280;SDS011;9774;52.034;5.342;2023-01-29T02:54:12;13.10;;;9.18;;
19280;SDS011;9774;52.034;5.342;2023-01-29T02:56:43;13.93;;;9.23;;
19280;SDS011;9774;52.034;5.342;2023-01-29T02:59:20;12.00;;;8.75;;
19280;SDS011;9774;52.034;5.342;2023-01-29T03:01:51;13.48;;;9.10;;
19280;SDS011;9774;52.034;5.342;2023-01-29T03:04:23;12.35;;;9.00;;
19280;SDS011;9774;52.034;5.342;2023-01-29T03:06:56;13.38;;;8.65;;
19280;SDS011;9774;52.034;5.342;2023-01-29T03:09:28;16.00;;;10.05;;
19280;SDS011;9774;52.034;5.342;2023-01-29T03:12:01;13.32;;;9.40;;
19280;SDS011;9774;52.034;5.342;2023-01-29T03:14:44;12.05;;;8.20;;
19280;SDS011;9774;52.034;5.342;2023-01-29T03:17:32;13.98;;;9.23;;
19280;SDS011;9774;52.034;5.342;2023-01-29T03:20:04;14.63;;;9.15;;
19280;SDS011;9774;52.034;5.342;2023-01-29T03:22:38;14.40;;;10.40;;
19280;SDS011;9774;52.034;5.342;2023-01-29T03:25:09;14.73;;;9.65;;
19280;SDS011;9774;52.034;5.342;2023-01-29T03:27:56;13.13;;;9.07;;
19280;SDS011;9774;52.034;5.342;2023-01-29T03:30:47;12.77;;;8.35;;
19280;SDS011;9774;52.034;5.342;2023-01-29T03:33:35;12.30;;;8.38;;
19280;SDS011;9774;52.034;5.342;2023-01-29T03:36:08;14.63;;;9.65;;
19280;SDS011;9774;52.034;5.342;2023-01-29T03:38:39;13.20;;;8.73;;
19280;SDS011;9774;52.034;5.342;2023-01-29T03:41:07;15.55;;;9.75;;
19280;SDS011;9774;52.034;5.342;2023-01-29T03:43:40;13.40;;;8.85;;
19280;SDS011;9774;52.034;5.342;2023-01-29T03:46:17;14.10;;;9.35;;
19280;SDS011;9774;52.034;5.342;2023-01-29T03:48:53;15.73;;;10.50;;
19280;SDS011;9774;52.034;5.342;2023-01-29T03:51:26;13.38;;;9.20;;
19280;SDS011;9774;52.034;5.342;2023-01-29T03:53:59;13.30;;;8.95;;
19280;SDS011;9774;52.034;5.342;2023-01-29T03:56:35;16.60;;;10.10;;
19280;SDS011;9774;52.034;5.342;2023-01-29T03:59:16;13.30;;;8.90;;
19280;SDS011;9774;52.034;5.342;2023-01-29T04:01:50;16.70;;;10.20;;
19280;SDS011;9774;52.034;5.342;2023-01-29T04:04:22;12.27;;;9.25;;
19280;SDS011;9774;52.034;5.342;2023-01-29T04:06:53;15.05;;;10.18;;
19280;SDS011;9774;52.034;5.342;2023-01-29T04:09:24;15.43;;;10.30;;
19280;SDS011;9774;52.034;5.342;2023-01-29T04:11:57;15.27;;;10.13;;
19280;SDS011;9774;52.034;5.342;2023-01-29T04:14:29;13.30;;;9.65;;
19280;SDS011;9774;52.034;5.342;2023-01-29T04:16:59;14.60;;;9.95;;
19280;SDS011;9774;52.034;5.342;2023-01-29T04:19:32;16.33;;;11.38;;
19280;SDS011;9774;52.034;5.342;2023-01-29T04:22:01;13.75;;;9.48;;
19280;SDS011;9774;52.034;5.342;2023-01-29T04:24:32;15.73;;;10.25;;
19280;SDS011;9774;52.034;5.342;2023-01-29T04:27:04;17.38;;;10.95;;
19280;SDS011;9774;52.034;5.342;2023-01-29T04:29:48;14.35;;;9.70;;
19280;SDS011;9774;52.034;5.342;2023-01-29T04:32:25;14.40;;;9.85;;
19280;SDS011;9774;52.034;5.342;2023-01-29T04:34:58;15.32;;;10.27;;
19280;SDS011;9774;52.034;5.342;2023-01-29T04:37:33;15.45;;;9.90;;
19280;SDS011;9774;52.034;5.342;2023-01-29T04:40:08;15.50;;;9.50;;
19280;SDS011;9774;52.034;5.342;2023-01-29T04:42:46;14.48;;;9.77;;
19280;SDS011;9774;52.034;5.342;2023-01-29T04:45:19;14.23;;;9.45;;
19280;SDS011;9774;52.034;5.342;2023-01-29T04:47:56;14.85;;;9.52;;
19280;SDS011;9774;52.034;5.342;2023-01-29T04:50:32;15.90;;;10.82;;
19280;SDS011;9774;52.034;5.342;2023-01-29T04:53:03;15.35;;;10.60;;
19280;SDS011;9774;52.034;5.342;2023-01-29T04:55:37;13.95;;;9.52;;
19280;SDS011;9774;52.034;5.342;2023-01-29T04:58:10;13.18;;;9.40;;
19280;SDS011;9774;52.034;5.342;2023-01-29T05:00:41;15.05;;;10.23;;
19280;SDS011;9774;52.034;5.342;2023-01-29T05:03:12;14.50;;;10.15;;
19280;SDS011;9774;52.034;5.342;2023-01-29T05:05:41;13.77;;;10.25;;
19280;SDS011;9774;52.034;5.342;2023-01-29T05:08:11;13.50;;;9.93;;
19280;SDS011;9774;52.034;5.342;2023-01-29T05:10:40;13.80;;;10.23;;
19280;SDS011;9774;52.034;5.342;2023-01-29T05:13:09;15.18;;;9.65;;
19280;SDS011;9774;52.034;5.342;2023-01-29T05:15:40;14.35;;;9.88;;
19280;SDS011;9774;52.034;5.342;2023-01-29T05:18:15;14.73;;;10.15;;
19280;SDS011;9774;52.034;5.342;2023-01-29T05:20:42;14.88;;;10.20;;
19280;SDS011;9774;52.034;5.342;2023-01-29T05:23:14;14.25;;;9.65;;
19280;SDS011;9774;52.034;5.342;2023-01-29T05:25:42;15.70;;;9.90;;
19280;SDS011;9774;52.034;5.342;2023-01-29T05:28:10;12.23;;;8.98;;
19280;SDS011;9774;52.034;5.342;2023-01-29T05:30:41;13.20;;;9.48;;
19280;SDS011;9774;52.034;5.342;2023-01-29T05:33:11;13.70;;;9.32;;
19280;SDS011;9774;52.034;5.342;2023-01-29T05:35:41;12.57;;;8.93;;
19280;SDS011;9774;52.034;5.342;2023-01-29T05:38:08;14.65;;;10.45;;
19280;SDS011;9774;52.034;5.342;2023-01-29T05:40:36;15.05;;;9.75;;
19280;SDS011;9774;52.034;5.342;2023-01-29T05:43:04;13.48;;;9.63;;
19280;SDS011;9774;52.034;5.342;2023-01-29T05:45:38;14.57;;;9.60;;
19280;SDS011;9774;52.034;5.342;2023-01-29T05:48:05;12.50;;;9.43;;
19280;SDS011;9774;52.034;5.342;2023-01-29T05:50:33;11.85;;;8.90;;
19280;SDS011;9774;52.034;5.342;2023-01-29T05:53:01;11.55;;;8.75;;
19280;SDS011;9774;52.034;5.342;2023-01-29T05:55:29;13.25;;;9.73;;
19280;SDS011;9774;52.034;5.342;2023-01-29T05:57:57;14.23;;;9.88;;
19280;SDS011;9774;52.034;5.342;2023-01-29T06:00:24;12.13;;;9.25;;
19280;SDS011;9774;52.034;5.342;2023-01-29T06:02:51;11.52;;;8.65;;
19280;SDS011;9774;52.034;5.342;2023-01-29T06:05:19;15.15;;;9.45;;
19280;SDS011;9774;52.034;5.342;2023-01-29T06:07:46;13.18;;;9.70;;
19280;SDS011;9774;52.034;5.342;2023-01-29T06:10:15;16.55;;;10.23;;
19280;SDS011;9774;52.034;5.342;2023-01-29T06:12:43;13.63;;;9.40;;
19280;SDS011;9774;52.034;5.342;2023-01-29T06:15:11;11.80;;;9.13;;
19280;SDS011;9774;52.034;5.342;2023-01-29T06:17:39;11.80;;;9.48;;
19280;SDS011;9774;52.034;5.342;2023-01-29T06:20:08;14.82;;;9.75;;
19280;SDS011;9774;52.034;5.342;2023-01-29T06:22:35;14.23;;;9.52;;
19280;SDS011;9774;52.034;5.342;2023-01-29T06:25:03;12.15;;;9.38;;
19280;SDS011;9774;52.034;5.342;2023-01-29T06:27:33;14.13;;;9.60;;
19280;SDS011;9774;52.034;5.342;2023-01-29T06:30:00;13.07;;;9.02;;
19280;SDS011;9774;52.034;5.342;2023-01-29T06:32:27;13.13;;;9.10;;
19280;SDS011;9774;52.034;5.342;2023-01-29T06:34:54;12.63;;;8.57;;
19280;SDS011;9774;52.034;5.342;2023-01-29T06:37:22;11.88;;;8.68;;
19280;SDS011;9774;52.034;5.342;2023-01-29T06:39:49;14.27;;;9.93;;
19280;SDS011;9774;52.034;5.342;2023-01-29T06:42:16;13.05;;;9.45;;
19280;SDS011;9774;52.034;5.342;2023-01-29T06:44:45;14.15;;;9.65;;
19280;SDS011;9774;52.034;5.342;2023-01-29T06:47:13;14.25;;;9.40;;
19280;SDS011;9774;52.034;5.342;2023-01-29T06:49:40;14.48;;;8.82;;
19280;SDS011;9774;52.034;5.342;2023-01-29T06:52:08;16.20;;;9.45;;
19280;SDS011;9774;52.034;5.342;2023-01-29T06:54:36;13.35;;;9.98;;
19280;SDS011;9774;52.034;5.342;2023-01-29T06:57:03;13.95;;;10.35;;
19280;SDS011;9774;52.034;5.342;2023-01-29T06:59:30;12.35;;;8.82;;
19280;SDS011;9774;52.034;5.342;2023-01-29T07:01:59;11.75;;;8.82;;
19280;SDS011;9774;52.034;5.342;2023-01-29T07:04:28;13.13;;;9.43;;
19280;SDS011;9774;52.034;5.342;2023-01-29T07:06:55;13.50;;;10.02;;
19280;SDS011;9774;52.034;5.342;2023-01-29T07:09:24;13.27;;;9.52;;
19280;SDS011;9774;52.034;5.342;2023-01-29T07:11:51;13.48;;;9.60;;
19280;SDS011;9774;52.034;5.342;2023-01-29T07:14:18;12.10;;;9.15;;
19280;SDS011;9774;52.034;5.342;2023-01-29T07:16:46;12.15;;;9.10;;
19280;SDS011;9774;52.034;5.342;2023-01-29T07:19:14;11.82;;;9.18;;
19280;SDS011;9774;52.034;5.342;2023-01-29T07:21:42;13.48;;;9.48;;
19280;SDS011;9774;52.034;5.342;2023-01-29T07:24:09;12.95;;;9.57;;
19280;SDS011;9774;52.034;5.342;2023-01-29T07:26:36;12.93;;;9.48;;
19280;SDS011;9774;52.034;5.342;2023-01-29T07:29:03;14.98;;;10.13;;
19280;SDS011;9774;52.034;5.342;2023-01-29T07:31:31;13.75;;;9.27;;
19280;SDS011;9774;52.034;5.342;2023-01-29T07:33:58;11.77;;;8.57;;
19280;SDS011;9774;52.034;5.342;2023-01-29T07:36:27;12.88;;;9.35;;
19280;SDS011;9774;52.034;5.342;2023-01-29T07:38:54;13.32;;;9.70;;
19280;SDS011;9774;52.034;5.342;2023-01-29T07:41:22;13.55;;;10.05;;
19280;SDS011;9774;52.034;5.342;2023-01-29T07:43:49;12.38;;;9.63;;
19280;SDS011;9774;52.034;5.342;2023-01-29T07:46:16;12.35;;;8.90;;
19280;SDS011;9774;52.034;5.342;2023-01-29T07:48:44;13.25;;;9.52;;
19280;SDS011;9774;52.034;5.342;2023-01-29T07:51:11;15.80;;;10.23;;
19280;SDS011;9774;52.034;5.342;2023-01-29T07:53:40;11.98;;;9.27;;
19280;SDS011;9774;52.034;5.342;2023-01-29T07:56:13;11.57;;;8.50;;
19280;SDS011;9774;52.034;5.342;2023-01-29T07:58:40;11.02;;;8.45;;
19280;SDS011;9774;52.034;5.342;2023-01-29T08:01:08;14.38;;;9.75;;
19280;SDS011;9774;52.034;5.342;2023-01-29T08:03:35;13.75;;;9.75;;
19280;SDS011;9774;52.034;5.342;2023-01-29T08:06:03;12.25;;;9.60;;
19280;SDS011;9774;52.034;5.342;2023-01-29T08:08:30;12.85;;;8.82;;
19280;SDS011;9774;52.034;5.342;2023-01-29T08:11:00;13.63;;;9.35;;
19280;SDS011;9774;52.034;5.342;2023-01-29T08:13:29;12.15;;;8.85;;
19280;SDS011;9774;52.034;5.342;2023-01-29T08:15:58;15.70;;;10.07;;
19280;SDS011;9774;52.034;5.342;2023-01-29T08:18:26;12.85;;;9.43;;
19280;SDS011;9774;52.034;5.342;2023-01-29T08:20:57;12.32;;;9.65;;
19280;SDS011;9774;52.034;5.342;2023-01-29T08:23:25;11.82;;;8.82;;
19280;SDS011;9774;52.034;5.342;2023-01-29T08:25:52;11.18;;;8.43;;
19280;SDS011;9774;52.034;5.342;2023-01-29T08:28:21;14.25;;;9.88;;
19280;SDS011;9774;52.034;5.342;2023-01-29T08:30:48;12.95;;;9.02;;
19280;SDS011;9774;52.034;5.342;2023-01-29T08:33:16;10.98;;;8.27;;
19280;SDS011;9774;52.034;5.342;2023-01-29T08:35:43;13.68;;;9.32;;
19280;SDS011;9774;52.034;5.342;2023-01-29T08:38:14;12.80;;;9.20;;
19280;SDS011;9774;52.034;5.342;2023-01-29T08:40:42;13.32;;;10.00;;
19280;SDS011;9774;52.034;5.342;2023-01-29T08:43:10;14.50;;;9.07;;
19280;SDS011;9774;52.034;5.342;2023-01-29T08:45:40;14.40;;;10.18;;
19280;SDS011;9774;52.034;5.342;2023-01-29T08:48:08;12.15;;;8.82;;
19280;SDS011;9774;52.034;5.342;2023-01-29T08:50:36;11.52;;;8.70;;
19280;SDS011;9774;52.034;5.342;2023-01-29T08:53:04;14.07;;;9.43;;
19280;SDS011;9774;52.034;5.342;2023-01-29T08:55:33;15.50;;;10.95;;
19280;SDS011;9774;52.034;5.342;2023-01-29T08:58:02;12.35;;;8.85;;
19280;SDS011;9774;52.034;5.342;2023-01-29T09:00:30;13.35;;;9.35;;
19280;SDS011;9774;52.034;5.342;2023-01-29T09:02:58;13.50;;;9.73;;
19280;SDS011;9774;52.034;5.342;2023-01-29T09:05:26;16.85;;;10.18;;
19280;SDS011;9774;52.034;5.342;2023-01-29T09:07:54;14.50;;;9.35;;
19280;SDS011;9774;52.034;5.342;2023-01-29T09:10:22;12.82;;;9.50;;
19280;SDS011;9774;52.034;5.342;2023-01-29T09:12:50;11.43;;;9.63;;
19280;SDS011;9774;52.034;5.342;2023-01-29T09:15:17;13.98;;;9.88;;
19280;SDS011;9774;52.034;5.342;2023-01-29T09:17:44;12.90;;;9.40;;
19280;SDS011;9774;52.034;5.342;2023-01-29T09:20:14;13.45;;;9.02;;
19280;SDS011;9774;52.034;5.342;2023-01-29T09:22:42;14.57;;;9.57;;
19280;SDS011;9774;52.034;5.342;2023-01-29T09:25:09;12.70;;;8.57;;
19280;SDS011;9774;52.034;5.342;2023-01-29T09:27:37;12.35;;;9.00;;
19280;SDS011;9774;52.034;5.342;2023-01-29T09:30:04;12.10;;;9.05;;
19280;SDS011;9774;52.034;5.342;2023-01-29T09:32:32;12.52;;;9.40;;
19280;SDS011;9774;52.034;5.342;2023-01-29T09:35:00;12.60;;;9.15;;
19280;SDS011;9774;52.034;5.342;2023-01-29T09:37:29;13.77;;;8.68;;
19280;SDS011;9774;52.034;5.342;2023-01-29T09:39:56;13.20;;;8.95;;
19280;SDS011;9774;52.034;5.342;2023-01-29T09:42:23;14.18;;;10.45;;
19280;SDS011;9774;52.034;5.342;2023-01-29T09:44:57;12.40;;;9.15;;
19280;SDS011;9774;52.034;5.342;2023-01-29T09:47:30;14.95;;;10.00;;
19280;SDS011;9774;52.034;5.342;2023-01-29T09:50:02;13.45;;;9.13;;
19280;SDS011;9774;52.034;5.342;2023-01-29T09:52:35;12.70;;;8.93;;
19280;SDS011;9774;52.034;5.342;2023-01-29T09:55:06;12.63;;;8.55;;
19280;SDS011;9774;52.034;5.342;2023-01-29T09:57:40;12.48;;;9.30;;
19280;SDS011;9774;52.034;5.342;2023-01-29T10:00:13;11.93;;;8.65;;
19280;SDS011;9774;52.034;5.342;2023-01-29T10:02:51;13.10;;;9.00;;
19280;SDS011;9774;52.034;5.342;2023-01-29T10:05:36;11.68;;;9.35;;
19280;SDS011;9774;52.034;5.342;2023-01-29T10:08:22;14.63;;;8.93;;
19280;SDS011;9774;52.034;5.342;2023-01-29T10:11:03;12.25;;;9.02;;
19280;SDS011;9774;52.034;5.342;2023-01-29T10:13:39;14.13;;;9.93;;
19280;SDS011;9774;52.034;5.342;2023-01-29T10:16:16;12.80;;;9.65;;
19280;SDS011;9774;52.034;5.342;2023-01-29T10:21:51;12.38;;;8.35;;
19280;SDS011;9774;52.034;5.342;2023-01-29T10:24:32;12.82;;;10.10;;
19280;SDS011;9774;52.034;5.342;2023-01-29T10:27:07;12.40;;;8.73;;
19280;SDS011;9774;52.034;5.342;2023-01-29T10:29:39;12.45;;;8.32;;
19280;SDS011;9774;52.034;5.342;2023-01-29T10:32:10;14.85;;;9.32;;
19280;SDS011;9774;52.034;5.342;2023-01-29T10:34:41;12.57;;;9.57;;
19280;SDS011;9774;52.034;5.342;2023-01-29T10:37:14;10.52;;;8.65;;
19280;SDS011;9774;52.034;5.342;2023-01-29T10:39:44;14.57;;;9.48;;
19280;SDS011;9774;52.034;5.342;2023-01-29T10:42:14;12.40;;;9.82;;
19280;SDS011;9774;52.034;5.342;2023-01-29T10:44:52;12.15;;;8.82;;
19280;SDS011;9774;52.034;5.342;2023-01-29T10:50:44;12.50;;;8.75;;
19280;SDS011;9774;52.034;5.342;2023-01-29T10:56:16;12.10;;;9.32;;
19280;SDS011;9774;52.034;5.342;2023-01-29T10:59:00;13.00;;;9.82;;
19280;SDS011;9774;52.034;5.342;2023-01-29T11:01:30;13.32;;;9.65;;
19280;SDS011;9774;52.034;5.342;2023-01-29T11:03:58;14.82;;;9.82;;
19280;SDS011;9774;52.034;5.342;2023-01-29T11:06:28;12.35;;;9.80;;
19280;SDS011;9774;52.034;5.342;2023-01-29T11:08:58;13.38;;;9.20;;
19280;SDS011;9774;52.034;5.342;2023-01-29T11:11:38;13.18;;;9.07;;
19280;SDS011;9774;52.034;5.342;2023-01-29T11:14:11;13.98;;;10.40;;
19280;SDS011;9774;52.034;5.342;2023-01-29T11:16:42;14.65;;;11.25;;
19280;SDS011;9774;52.034;5.342;2023-01-29T11:19:11;14.23;;;9.95;;
19280;SDS011;9774;52.034;5.342;2023-01-29T11:21:49;15.82;;;11.68;;
19280;SDS011;9774;52.034;5.342;2023-01-29T11:24:18;15.70;;;10.32;;
19280;SDS011;9774;52.034;5.342;2023-01-29T11:26:47;18.13;;;11.13;;
19280;SDS011;9774;52.034;5.342;2023-01-29T11:29:28;15.45;;;11.00;;
19280;SDS011;9774;52.034;5.342;2023-01-29T11:32:02;16.15;;;11.05;;
19280;SDS011;9774;52.034;5.342;2023-01-29T11:34:31;14.15;;;9.85;;
19280;SDS011;9774;52.034;5.342;2023-01-29T11:37:00;13.65;;;9.85;;
19280;SDS011;9774;52.034;5.342;2023-01-29T11:39:28;15.48;;;10.60;;
19280;SDS011;9774;52.034;5.342;2023-01-29T11:41:58;16.27;;;11.45;;
19280;SDS011;9774;52.034;5.342;2023-01-29T11:44:29;14.95;;;10.55;;
19280;SDS011;9774;52.034;5.342;2023-01-29T11:47:06;15.45;;;11.07;;
19280;SDS011;9774;52.034;5.342;2023-01-29T11:49:37;16.08;;;11.38;;
19280;SDS011;9774;52.034;5.342;2023-01-29T11:52:09;15.25;;;11.00;;
19280;SDS011;9774;52.034;5.342;2023-01-29T11:54:39;14.60;;;11.23;;
19280;SDS011;9774;52.034;5.342;2023-01-29T11:57:18;14.07;;;10.00;;
19280;SDS011;9774;52.034;5.342;2023-01-29T11:59:51;14.63;;;10.93;;
19280;SDS011;9774;52.034;5.342;2023-01-29T12:02:28;15.13;;;10.57;;
19280;SDS011;9774;52.034;5.342;2023-01-29T12:05:01;13.50;;;9.93;;
19280;SDS011;9774;52.034;5.342;2023-01-29T12:07:31;14.30;;;10.50;;
19280;SDS011;9774;52.034;5.342;2023-01-29T12:09:59;15.45;;;10.07;;
19280;SDS011;9774;52.034;5.342;2023-01-29T12:12:36;14.70;;;10.45;;
19280;SDS011;9774;52.034;5.342;2023-01-29T12:15:17;16.50;;;11.95;;
19280;SDS011;9774;52.034;5.342;2023-01-29T12:17:49;15.07;;;11.43;;
19280;SDS011;9774;52.034;5.342;2023-01-29T12:20:26;15.25;;;10.52;;
19280;SDS011;9774;52.034;5.342;2023-01-29T12:23:00;18.05;;;11.80;;
19280;SDS011;9774;52.034;5.342;2023-01-29T12:25:43;14.80;;;10.55;;
19280;SDS011;9774;52.034;5.342;2023-01-29T12:28:24;15.02;;;10.77;;
19280;SDS011;9774;52.034;5.342;2023-01-29T12:31:04;15.90;;;11.10;;
19280;SDS011;9774;52.034;5.342;2023-01-29T12:33:42;16.83;;;12.90;;
19280;SDS011;9774;52.034;5.342;2023-01-29T12:36:17;17.60;;;12.48;;
19280;SDS011;9774;52.034;5.342;2023-01-29T12:38:48;16.40;;;11.68;;
19280;SDS011;9774;52.034;5.342;2023-01-29T12:41:21;17.27;;;11.55;;
19280;SDS011;9774;52.034;5.342;2023-01-29T12:43:56;17.40;;;10.85;;
19280;SDS011;9774;52.034;5.342;2023-01-29T12:46:29;18.67;;;12.98;;
19280;SDS011;9774;52.034;5.342;2023-01-29T12:49:02;15.50;;;11.90;;
19280;SDS011;9774;52.034;5.342;2023-01-29T12:51:37;18.55;;;12.43;;
19280;SDS011;9774;52.034;5.342;2023-01-29T12:54:14;16.13;;;11.90;;
19280;SDS011;9774;52.034;5.342;2023-01-29T12:56:47;15.93;;;12.90;;
19280;SDS011;9774;52.034;5.342;2023-01-29T12:59:19;17.40;;;12.48;;
19280;SDS011;9774;52.034;5.342;2023-01-29T13:01:53;16.40;;;11.82;;
19280;SDS011;9774;52.034;5.342;2023-01-29T13:04:29;20.40;;;13.70;;
19280;SDS011;9774;52.034;5.342;2023-01-29T13:07:03;16.83;;;12.73;;
19280;SDS011;9774;52.034;5.342;2023-01-29T13:09:38;19.23;;;13.10;;
19280;SDS011;9774;52.034;5.342;2023-01-29T13:12:10;17.40;;;12.55;;
19280;SDS011;9774;52.034;5.342;2023-01-29T13:14:43;18.60;;;13.25;;
19280;SDS011;9774;52.034;5.342;2023-01-29T13:17:17;17.48;;;13.38;;
19280;SDS011;9774;52.034;5.342;2023-01-29T13:19:51;15.32;;;12.55;;
19280;SDS011;9774;52.034;5.342;2023-01-29T13:22:22;17.27;;;12.05;;
19280;SDS011;9774;52.034;5.342;2023-01-29T13:24:51;19.13;;;13.55;;
19280;SDS011;9774;52.034;5.342;2023-01-29T13:27:23;19.65;;;13.55;;
19280;SDS011;9774;52.034;5.342;2023-01-29T13:29:54;16.40;;;11.77;;
19280;SDS011;9774;52.034;5.342;2023-01-29T13:32:23;17.90;;;12.90;;
19280;SDS011;9774;52.034;5.342;2023-01-29T13:34:52;18.58;;;12.40;;
19280;SDS011;9774;52.034;5.342;2023-01-29T13:37:25;18.90;;;12.77;;
19280;SDS011;9774;52.034;5.342;2023-01-29T13:39:56;16.55;;;12.05;;
19280;SDS011;9774;52.034;5.342;2023-01-29T13:42:32;15.30;;;12.07;;
19280;SDS011;9774;52.034;5.342;2023-01-29T13:45:06;15.45;;;11.63;;
19280;SDS011;9774;52.034;5.342;2023-01-29T13:47:42;18.42;;;11.27;;
19280;SDS011;9774;52.034;5.342;2023-01-29T13:50:12;15.95;;;11.57;;
19280;SDS011;9774;52.034;5.342;2023-01-29T13:52:51;16.10;;;11.70;;
19280;SDS011;9774;52.034;5.342;2023-01-29T13:55:22;17.02;;;12.15;;
19280;SDS011;9774;52.034;5.342;2023-01-29T13:57:55;17.30;;;11.52;;
19280;SDS011;9774;52.034;5.342;2023-01-29T14:06:34;15.32;;;10.98;;
19280;SDS011;9774;52.034;5.342;2023-01-29T14:15:16;14.23;;;10.65;;
19280;SDS011;9774;52.034;5.342;2023-01-29T14:17:57;15.13;;;11.13;;
19280;SDS011;9774;52.034;5.342;2023-01-29T14:20:56;17.23;;;12.35;;
19280;SDS011;9774;52.034;5.342;2023-01-29T14:23:33;14.77;;;10.48;;
19280;SDS011;9774;52.034;5.342;2023-01-29T14:26:17;15.48;;;11.75;;
19280;SDS011;9774;52.034;5.342;2023-01-29T14:28:51;15.95;;;11.30;;
19280;SDS011;9774;52.034;5.342;2023-01-29T14:31:28;16.60;;;11.32;;
19280;SDS011;9774;52.034;5.342;2023-01-29T14:34:02;13.90;;;10.73;;
19280;SDS011;9774;52.034;5.342;2023-01-29T14:36:37;15.38;;;11.10;;
19280;SDS011;9774;52.034;5.342;2023-01-29T14:39:16;16.55;;;11.68;;
19280;SDS011;9774;52.034;5.342;2023-01-29T14:41:48;15.93;;;11.15;;
19280;SDS011;9774;52.034;5.342;2023-01-29T14:47:16;15.82;;;11.18;;
19280;SDS011;9774;52.034;5.342;2023-01-29T14:49:49;14.60;;;10.75;;
19280;SDS011;9774;52.034;5.342;2023-01-29T14:52:19;14.13;;;10.68;;
19280;SDS011;9774;52.034;5.342;2023-01-29T14:54:49;13.82;;;10.13;;
19280;SDS011;9774;52.034;5.342;2023-01-29T14:57:19;14.98;;;10.93;;
19280;SDS011;9774;52.034;5.342;2023-01-29T14:59:48;15.73;;;10.20;;
19280;SDS011;9774;52.034;5.342;2023-01-29T15:02:21;13.48;;;10.75;;
19280;SDS011;9774;52.034;5.342;2023-01-29T15:04:52;15.05;;;10.35;;
19280;SDS011;9774;52.034;5.342;2023-01-29T15:07:24;19.50;;;10.93;;
19280;SDS011;9774;52.034;5.342;2023-01-29T15:09:59;15.07;;;10.93;;
19280;SDS011;9774;52.034;5.342;2023-01-29T15:12:32;17.38;;;11.13;;
19280;SDS011;9774;52.034;5.342;2023-01-29T15:15:09;14.13;;;10.63;;
19280;SDS011;9774;52.034;5.342;2023-01-29T15:17:44;16.00;;;11.18;;
19280;SDS011;9774;52.034;5.342;2023-01-29T15:20:29;16.95;;;11.48;;
19280;SDS011;9774;52.034;5.342;2023-01-29T15:22:57;16.48;;;10.85;;
19280;SDS011;9774;52.034;5.342;2023-01-29T15:25:27;15.82;;;11.93;;
19280;SDS011;9774;52.034;5.342;2023-01-29T15:27:59;15.23;;;10.90;;
19280;SDS011;9774;52.034;5.342;2023-01-29T15:30:32;17.48;;;12.18;;
19280;SDS011;9774;52.034;5.342;2023-01-29T15:33:00;13.57;;;9.88;;
19280;SDS011;9774;52.034;5.342;2023-01-29T15:35:32;13.23;;;10.05;;
19280;SDS011;9774;52.034;5.342;2023-01-29T15:38:02;14.48;;;9.57;;